sensor_id;sensor_type;location;lat;lon;timestamp;pressure;altitude;pressure_sealevel;temperature;humidity
8140;BME280;4111;50.972;7.072;2022-12-29T00:01:38;99969.38;;;11.30;100.00
8140;BME280;4111;50.972;7.072;2022-12-29T00:04:06;99967.19;;;11.27;100.00
8140;BME280;4111;50.972;7.072;2022-12-29T00:06:40;99958.22;;;11.27;100.00
8140;BME280;4111;50.972;7.072;2022-12-29T00:09:07;99960.44;;;11.30;100.00
8140;BME280;4111;50.972;7.072;2022-12-29T00:11:34;99949.81;;;11.28;100.00
8140;BME280;4111;50.972;7.072;2022-12-29T00:14:01;99939.78;;;11.24;100.00
8140;BME280;4111;50.972;7.072;2022-12-29T00:16:51;99930.25;;;11.26;100.00
8140;BME280;4111;50.972;7.072;2022-12-29T00:19:17;99937.59;;;11.31;100.00
8140;BME280;4111;50.972;7.072;2022-12-29T00:22:03;99946.56;;;11.26;100.00
8140;BME280;4111;50.972;7.072;2022-12-29T00:24:47;99938.94;;;11.28;100.00
8140;BME280;4111;50.972;7.072;2022-12-29T00:27:32;99933.00;;;11.31;100.00
8140;BME280;4111;50.972;7.072;2022-12-29T00:30:19;99927.56;;;11.31;100.00
8140;BME280;4111;50.972;7.072;2022-12-29T00:38:31;99911.50;;;11.40;100.00
8140;BME280;4111;50.972;7.072;2022-12-29T00:41:17;99918.28;;;11.43;100.00
8140;BME280;4111;50.972;7.072;2022-12-29T00:44:02;99913.94;;;11.52;100.00
8140;BME280;4111;50.972;7.072;2022-12-29T00:46:33;99923.19;;;11.51;100.00
8140;BME280;4111;50.972;7.072;2022-12-29T00:49:00;99904.44;;;11.60;100.00
8140;BME280;4111;50.972;7.072;2022-12-29T00:51:46;99901.97;;;11.58;100.00
8140;BME280;4111;50.972;7.072;2022-12-29T00:54:13;99893.53;;;11.65;100.00
8140;BME280;4111;50.972;7.072;2022-12-29T00:56:40;99893.78;;;11.68;100.00
8140;BME280;4111;50.972;7.072;2022-12-29T00:59:09;99902.22;;;11.72;100.00
8140;BME280;4111;50.972;7.072;2022-12-29T01:01:36;99901.97;;;11.74;100.00
8140;BME280;4111;50.972;7.072;2022-12-29T01:04:04;99904.41;;;11.75;100.00
8140;BME280;4111;50.972;7.072;2022-12-29T01:06:31;99914.19;;;11.81;100.00
8140;BME280;4111;50.972;7.072;2022-12-29T01:08:58;99905.72;;;11.88;100.00
8140;BME280;4111;50.972;7.072;2022-12-29T01:11:43;99906.56;;;11.83;100.00
8140;BME280;4111;50.972;7.072;2022-12-29T01:14:09;99912.81;;;11.84;100.00
8140;BME280;4111;50.972;7.072;2022-12-29T01:16:36;99916.91;;;11.81;100.00
8140;BME280;4111;50.972;7.072;2022-12-29T01:19:03;99913.34;;;11.81;100.00
8140;BME280;4111;50.972;7.072;2022-12-29T01:21:29;99916.09;;;11.76;100.00
8140;BME280;4111;50.972;7.072;2022-12-29T01:23:56;99902.47;;;11.81;100.00
8140;BME280;4111;50.972;7.072;2022-12-29T01:26:22;99901.66;;;11.80;100.00
8140;BME280;4111;50.972;7.072;2022-12-29T01:28:49;99903.03;;;11.83;100.00
8140;BME280;4111;50.972;7.072;2022-12-29T01:31:15;99918.78;;;11.86;100.00
8140;BME280;4111;50.972;7.072;2022-12-29T01:33:43;99912.28;;;11.87;100.00
8140;BME280;4111;50.972;7.072;2022-12-29T01:36:13;99901.94;;;11.94;100.00
8140;BME280;4111;50.972;7.072;2022-12-29T01:38:40;99895.41;;;11.95;100.00
8140;BME280;4111;50.972;7.072;2022-12-29T01:41:09;99900.28;;;11.98;99.69
8140;BME280;4111;50.972;7.072;2022-12-29T01:43:46;99910.09;;;11.99;99.81
8140;BME280;4111;50.972;7.072;2022-12-29T01:46:19;99903.53;;;12.00;99.26
8140;BME280;4111;50.972;7.072;2022-12-29T01:48:49;99914.44;;;12.05;98.85
8140;BME280;4111;50.972;7.072;2022-12-29T01:51:17;99901.91;;;12.04;98.16
8140;BME280;4111;50.972;7.072;2022-12-29T01:53:44;99905.16;;;12.12;97.11
8140;BME280;4111;50.972;7.072;2022-12-29T01:56:15;99907.84;;;12.22;95.47
8140;BME280;4111;50.972;7.072;2022-12-29T01:58:47;99899.63;;;12.32;94.74
8140;BME280;4111;50.972;7.072;2022-12-29T02:01:15;99903.13;;;12.38;93.38
8140;BME280;4111;50.972;7.072;2022-12-29T02:03:44;99891.97;;;12.39;92.54
8140;BME280;4111;50.972;7.072;2022-12-29T02:06:16;99891.91;;;12.49;90.98
8140;BME280;4111;50.972;7.072;2022-12-29T02:08:46;99882.09;;;12.59;89.66
8140;BME280;4111;50.972;7.072;2022-12-29T02:11:13;99872.78;;;12.65;88.39
8140;BME280;4111;50.972;7.072;2022-12-29T02:13:40;99871.97;;;12.64;87.58
8140;BME280;4111;50.972;7.072;2022-12-29T02:16:34;99870.59;;;12.67;86.83
8140;BME280;4111;50.972;7.072;2022-12-29T02:21:56;99874.44;;;12.66;85.96
8140;BME280;4111;50.972;7.072;2022-12-29T02:30:15;99870.78;;;12.81;84.75
8140;BME280;4111;50.972;7.072;2022-12-29T02:32:52;99871.06;;;12.79;84.08
8140;BME280;4111;50.972;7.072;2022-12-29T02:35:32;99867.78;;;12.82;83.86
8140;BME280;4111;50.972;7.072;2022-12-29T02:38:19;99856.06;;;12.82;83.96
8140;BME280;4111;50.972;7.072;2022-12-29T02:43:38;99856.63;;;12.79;83.72
8140;BME280;4111;50.972;7.072;2022-12-29T02:46:19;99847.66;;;12.73;83.67
8140;BME280;4111;50.972;7.072;2022-12-29T02:49:13;99853.16;;;12.68;83.67
8140;BME280;4111;50.972;7.072;2022-12-29T02:51:56;99848.25;;;12.70;83.94
8140;BME280;4111;50.972;7.072;2022-12-29T02:54:24;99850.94;;;12.75;83.66
8140;BME280;4111;50.972;7.072;2022-12-29T03:00:13;99856.94;;;12.72;83.26
8140;BME280;4111;50.972;7.072;2022-12-29T03:05:42;99832.44;;;12.72;83.73
8140;BME280;4111;50.972;7.072;2022-12-29T03:08:33;99835.72;;;12.69;83.77
8140;BME280;4111;50.972;7.072;2022-12-29T03:11:07;99833.84;;;12.64;84.21
8140;BME280;4111;50.972;7.072;2022-12-29T03:14:02;99830.88;;;12.61;84.14
8140;BME280;4111;50.972;7.072;2022-12-29T03:16:53;99818.91;;;12.57;84.56
8140;BME280;4111;50.972;7.072;2022-12-29T03:19:30;99815.94;;;12.53;84.96
8140;BME280;4111;50.972;7.072;2022-12-29T03:22:05;99816.81;;;12.48;85.57
8140;BME280;4111;50.972;7.072;2022-12-29T03:24:54;99819.53;;;12.48;86.40
8140;BME280;4111;50.972;7.072;2022-12-29T03:27:25;99815.16;;;12.47;87.10
8140;BME280;4111;50.972;7.072;2022-12-29T03:29:58;99810.81;;;12.46;87.73
8140;BME280;4111;50.972;7.072;2022-12-29T03:32:31;99799.09;;;12.46;87.91
8140;BME280;4111;50.972;7.072;2022-12-29T03:34:59;99797.75;;;12.48;88.34
8140;BME280;4111;50.972;7.072;2022-12-29T03:37:31;99791.19;;;12.49;88.22
8140;BME280;4111;50.972;7.072;2022-12-29T03:40:01;99806.44;;;12.50;88.31
8140;BME280;4111;50.972;7.072;2022-12-29T03:42:30;99799.88;;;12.52;88.30
8140;BME280;4111;50.972;7.072;2022-12-29T03:44:58;99798.81;;;12.53;88.51
8140;BME280;4111;50.972;7.072;2022-12-29T03:47:25;99803.44;;;12.52;88.59
8140;BME280;4111;50.972;7.072;2022-12-29T03:49:52;99816.75;;;12.54;88.74
8140;BME280;4111;50.972;7.072;2022-12-29T03:52:19;99809.69;;;12.53;88.60
8140;BME280;4111;50.972;7.072;2022-12-29T03:54:45;99798.81;;;12.53;88.65
8140;BME280;4111;50.972;7.072;2022-12-29T03:57:12;99787.31;;;12.56;88.53
8140;BME280;4111;50.972;7.072;2022-12-29T03:59:39;99773.19;;;12.54;88.75
8140;BME280;4111;50.972;7.072;2022-12-29T04:02:05;99774.81;;;12.55;88.90
8140;BME280;4111;50.972;7.072;2022-12-29T04:04:32;99770.47;;;12.54;88.57
8140;BME280;4111;50.972;7.072;2022-12-29T04:06:59;99777.03;;;12.53;88.75
8140;BME280;4111;50.972;7.072;2022-12-29T04:09:25;99782.41;;;12.58;89.09
8140;BME280;4111;50.972;7.072;2022-12-29T04:11:51;99781.66;;;12.52;88.79
8140;BME280;4111;50.972;7.072;2022-12-29T04:14:18;99778.06;;;12.57;88.74
8140;BME280;4111;50.972;7.072;2022-12-29T04:16:44;99774.81;;;12.55;88.65
8140;BME280;4111;50.972;7.072;2022-12-29T04:19:11;99770.19;;;12.55;88.82
8140;BME280;4111;50.972;7.072;2022-12-29T04:21:37;99772.63;;;12.57;88.88
8140;BME280;4111;50.972;7.072;2022-12-29T04:24:05;99769.63;;;12.58;88.51
8140;BME280;4111;50.972;7.072;2022-12-29T04:26:32;99771.53;;;12.58;88.56
8140;BME280;4111;50.972;7.072;2022-12-29T04:28:59;99762.59;;;12.52;88.45
8140;BME280;4111;50.972;7.072;2022-12-29T04:31:25;99775.34;;;12.57;88.15
8140;BME280;4111;50.972;7.072;2022-12-29T04:33:52;99761.22;;;12.49;88.34
8140;BME280;4111;50.972;7.072;2022-12-29T04:36:18;99767.50;;;12.50;88.39
8140;BME280;4111;50.972;7.072;2022-12-29T04:38:45;99757.19;;;12.47;88.24
8140;BME280;4111;50.972;7.072;2022-12-29T04:41:11;99754.72;;;12.50;88.06
8140;BME280;4111;50.972;7.072;2022-12-29T04:43:37;99767.75;;;12.54;88.03
8140;BME280;4111;50.972;7.072;2022-12-29T04:46:04;99774.25;;;12.58;87.38
8140;BME280;4111;50.972;7.072;2022-12-29T04:48:31;99779.66;;;12.63;87.22
8140;BME280;4111;50.972;7.072;2022-12-29T04:50:57;99779.06;;;12.71;86.66
8140;BME280;4111;50.972;7.072;2022-12-29T04:53:24;99785.81;;;12.79;85.57
8140;BME280;4111;50.972;7.072;2022-12-29T04:55:52;99784.66;;;12.85;84.94
8140;BME280;4111;50.972;7.072;2022-12-29T04:58:19;99794.72;;;12.89;84.54
8140;BME280;4111;50.972;7.072;2022-12-29T05:00:50;99799.06;;;12.90;84.44
8140;BME280;4111;50.972;7.072;2022-12-29T05:03:16;99803.44;;;12.92;84.40
8140;BME280;4111;50.972;7.072;2022-12-29T05:05:43;99794.19;;;12.87;83.57
8140;BME280;4111;50.972;7.072;2022-12-29T05:08:10;99791.41;;;12.93;83.58
8140;BME280;4111;50.972;7.072;2022-12-29T05:10:36;99780.78;;;12.91;83.45
8140;BME280;4111;50.972;7.072;2022-12-29T05:13:03;99783.75;;;12.95;83.17
8140;BME280;4111;50.972;7.072;2022-12-29T05:15:29;99792.53;;;12.92;82.61
8140;BME280;4111;50.972;7.072;2022-12-29T05:17:56;99789.28;;;12.89;82.92
8140;BME280;4111;50.972;7.072;2022-12-29T05:20:22;99792.00;;;12.89;82.04
8140;BME280;4111;50.972;7.072;2022-12-29T05:22:49;99784.28;;;12.97;82.06
8140;BME280;4111;50.972;7.072;2022-12-29T05:25:15;99806.91;;;12.97;81.60
8140;BME280;4111;50.972;7.072;2022-12-29T05:27:42;99818.94;;;12.91;81.62
8140;BME280;4111;50.972;7.072;2022-12-29T05:30:09;99814.00;;;12.93;81.60
8140;BME280;4111;50.972;7.072;2022-12-29T05:32:36;99817.03;;;12.92;81.33
8140;BME280;4111;50.972;7.072;2022-12-29T05:35:02;99815.16;;;12.87;81.22
8140;BME280;4111;50.972;7.072;2022-12-29T05:37:29;99811.59;;;12.92;81.16
8140;BME280;4111;50.972;7.072;2022-12-29T05:39:56;99795.28;;;12.86;80.81
8140;BME280;4111;50.972;7.072;2022-12-29T05:42:22;99791.47;;;12.87;81.13
8140;BME280;4111;50.972;7.072;2022-12-29T05:44:48;99792.56;;;12.86;80.70
8140;BME280;4111;50.972;7.072;2022-12-29T05:47:18;99802.66;;;12.86;80.60
8140;BME280;4111;50.972;7.072;2022-12-29T05:49:44;99823.06;;;12.88;80.35
8140;BME280;4111;50.972;7.072;2022-12-29T05:52:10;99820.56;;;12.92;80.51
8140;BME280;4111;50.972;7.072;2022-12-29T05:54:37;99828.50;;;12.88;80.52
8140;BME280;4111;50.972;7.072;2022-12-29T05:57:03;99819.81;;;12.86;80.73
8140;BME280;4111;50.972;7.072;2022-12-29T05:59:30;99817.84;;;12.92;80.44
8140;BME280;4111;50.972;7.072;2022-12-29T06:01:56;99824.97;;;12.88;80.23
8140;BME280;4111;50.972;7.072;2022-12-29T06:04:23;99831.50;;;12.87;80.33
8140;BME280;4111;50.972;7.072;2022-12-29T06:06:49;99830.97;;;12.85;80.46
8140;BME280;4111;50.972;7.072;2022-12-29T06:09:15;99827.97;;;12.86;80.24
8140;BME280;4111;50.972;7.072;2022-12-29T06:11:42;99818.13;;;12.90;80.51
8140;BME280;4111;50.972;7.072;2022-12-29T06:14:09;99813.28;;;12.87;80.45
8140;BME280;4111;50.972;7.072;2022-12-29T06:16:35;99815.94;;;12.93;80.43
8140;BME280;4111;50.972;7.072;2022-12-29T06:19:02;99821.44;;;12.87;79.90
8140;BME280;4111;50.972;7.072;2022-12-29T06:21:28;99828.25;;;12.85;80.05
8140;BME280;4111;50.972;7.072;2022-12-29T06:23:55;99825.78;;;12.88;79.88
8140;BME280;4111;50.972;7.072;2022-12-29T06:26:21;99806.72;;;12.88;79.79
8140;BME280;4111;50.972;7.072;2022-12-29T06:28:48;99810.53;;;12.87;79.88
8140;BME280;4111;50.972;7.072;2022-12-29T06:31:14;99797.13;;;12.91;79.55
8140;BME280;4111;50.972;7.072;2022-12-29T06:33:41;99810.47;;;12.93;79.50
8140;BME280;4111;50.972;7.072;2022-12-29T06:36:07;99818.66;;;12.93;79.57
8140;BME280;4111;50.972;7.072;2022-12-29T06:38:34;99802.31;;;12.93;79.80
8140;BME280;4111;50.972;7.072;2022-12-29T06:41:01;99827.94;;;12.92;79.66
8140;BME280;4111;50.972;7.072;2022-12-29T06:43:27;99827.69;;;12.88;79.95
8140;BME280;4111;50.972;7.072;2022-12-29T06:45:54;99838.00;;;12.91;80.18
8140;BME280;4111;50.972;7.072;2022-12-29T06:48:20;99829.06;;;12.85;80.26
8140;BME280;4111;50.972;7.072;2022-12-29T06:50:47;99842.72;;;12.80;80.96
8140;BME280;4111;50.972;7.072;2022-12-29T06:53:13;99845.97;;;12.82;81.73
8140;BME280;4111;50.972;7.072;2022-12-29T06:55:41;99833.97;;;12.83;81.68
8140;BME280;4111;50.972;7.072;2022-12-29T06:58:08;99835.38;;;12.81;82.00
8140;BME280;4111;50.972;7.072;2022-12-29T07:00:34;99834.03;;;12.78;82.14
8140;BME280;4111;50.972;7.072;2022-12-29T07:03:00;99830.19;;;12.79;82.44
8140;BME280;4111;50.972;7.072;2022-12-29T07:05:27;99834.03;;;12.78;82.20
8140;BME280;4111;50.972;7.072;2022-12-29T07:07:54;99843.28;;;12.77;81.99
8140;BME280;4111;50.972;7.072;2022-12-29T07:10:21;99850.41;;;12.73;81.80
8140;BME280;4111;50.972;7.072;2022-12-29T07:12:48;99840.03;;;12.75;81.81
8140;BME280;4111;50.972;7.072;2022-12-29T07:15:14;99828.59;;;12.73;81.37
8140;BME280;4111;50.972;7.072;2022-12-29T07:17:41;99838.41;;;12.74;80.64
8140;BME280;4111;50.972;7.072;2022-12-29T07:20:08;99858.81;;;12.82;80.57
8140;BME280;4111;50.972;7.072;2022-12-29T07:22:36;99871.63;;;12.76;80.13
8140;BME280;4111;50.972;7.072;2022-12-29T07:25:02;99872.72;;;12.75;79.96
8140;BME280;4111;50.972;7.072;2022-12-29T07:27:29;99885.81;;;12.73;79.64
8140;BME280;4111;50.972;7.072;2022-12-29T07:29:56;99879.56;;;12.73;79.07
8140;BME280;4111;50.972;7.072;2022-12-29T07:32:22;99880.34;;;12.78;79.44
8140;BME280;4111;50.972;7.072;2022-12-29T07:34:49;99884.69;;;12.79;79.13
8140;BME280;4111;50.972;7.072;2022-12-29T07:37:15;99891.53;;;12.72;78.49
8140;BME280;4111;50.972;7.072;2022-12-29T07:39:42;99896.69;;;12.73;78.49
8140;BME280;4111;50.972;7.072;2022-12-29T07:42:09;99897.22;;;12.75;78.80
8140;BME280;4111;50.972;7.072;2022-12-29T07:44:35;99910.84;;;12.75;78.57
8140;BME280;4111;50.972;7.072;2022-12-29T07:47:02;99920.69;;;12.71;78.35
8140;BME280;4111;50.972;7.072;2022-12-29T07:49:29;99922.84;;;12.74;78.36
8140;BME280;4111;50.972;7.072;2022-12-29T07:51:56;99928.31;;;12.69;77.95
8140;BME280;4111;50.972;7.072;2022-12-29T07:54:22;99931.56;;;12.71;78.06
8140;BME280;4111;50.972;7.072;2022-12-29T07:56:49;99942.47;;;12.71;78.22
8140;BME280;4111;50.972;7.072;2022-12-29T07:59:16;99946.53;;;12.74;78.28
8140;BME280;4111;50.972;7.072;2022-12-29T08:01:42;99950.63;;;12.71;78.26
8140;BME280;4111;50.972;7.072;2022-12-29T08:04:09;99952.56;;;12.70;78.02
8140;BME280;4111;50.972;7.072;2022-12-29T08:06:35;99957.75;;;12.67;78.13
8140;BME280;4111;50.972;7.072;2022-12-29T08:09:03;99946.31;;;12.65;78.20
8140;BME280;4111;50.972;7.072;2022-12-29T08:11:41;99957.78;;;12.62;77.64
8140;BME280;4111;50.972;7.072;2022-12-29T08:14:09;99949.63;;;12.62;77.99
8140;BME280;4111;50.972;7.072;2022-12-29T08:16:36;99959.13;;;12.64;77.40
8140;BME280;4111;50.972;7.072;2022-12-29T08:19:02;99946.06;;;12.61;77.40
8140;BME280;4111;50.972;7.072;2022-12-29T08:21:31;99973.81;;;12.63;77.40
8140;BME280;4111;50.972;7.072;2022-12-29T08:23:57;99964.56;;;12.64;77.35
8140;BME280;4111;50.972;7.072;2022-12-29T08:26:25;99979.56;;;12.62;76.93
8140;BME280;4111;50.972;7.072;2022-12-29T08:28:54;99960.78;;;12.60;76.66
8140;BME280;4111;50.972;7.072;2022-12-29T08:31:22;99954.50;;;12.65;76.77
8140;BME280;4111;50.972;7.072;2022-12-29T08:33:49;99954.50;;;12.65;76.72
8140;BME280;4111;50.972;7.072;2022-12-29T08:36:15;99955.88;;;12.62;76.35
8140;BME280;4111;50.972;7.072;2022-12-29T08:38:43;99963.75;;;12.64;76.39
8140;BME280;4111;50.972;7.072;2022-12-29T08:41:09;99967.03;;;12.66;76.22
8140;BME280;4111;50.972;7.072;2022-12-29T08:43:36;99970.81;;;12.65;75.75
8140;BME280;4111;50.972;7.072;2022-12-29T08:46:02;99963.47;;;12.65;75.48
8140;BME280;4111;50.972;7.072;2022-12-29T08:48:29;99971.41;;;12.57;75.19
8140;BME280;4111;50.972;7.072;2022-12-29T08:50:55;99981.19;;;12.58;75.19
8140;BME280;4111;50.972;7.072;2022-12-29T08:53:22;99976.06;;;12.56;75.05
8140;BME280;4111;50.972;7.072;2022-12-29T08:55:56;99980.91;;;12.59;74.75
8140;BME280;4111;50.972;7.072;2022-12-29T08:58:30;99986.38;;;12.59;74.40
8140;BME280;4111;50.972;7.072;2022-12-29T09:00:57;99999.97;;;12.59;74.01
8140;BME280;4111;50.972;7.072;2022-12-29T09:03:24;99987.19;;;12.60;74.04
8140;BME280;4111;50.972;7.072;2022-12-29T09:06:11;99989.91;;;12.60;74.39
8140;BME280;4111;50.972;7.072;2022-12-29T09:08:37;99982.31;;;12.52;73.65
8140;BME280;4111;50.972;7.072;2022-12-29T09:11:19;99990.47;;;12.57;73.24
8140;BME280;4111;50.972;7.072;2022-12-29T09:13:46;99996.72;;;12.62;73.03
8140;BME280;4111;50.972;7.072;2022-12-29T09:16:13;100000.78;;;12.60;72.78
8140;BME280;4111;50.972;7.072;2022-12-29T09:18:40;100007.34;;;12.59;72.77
8140;BME280;4111;50.972;7.072;2022-12-29T09:21:07;100016.31;;;12.59;72.54
8140;BME280;4111;50.972;7.072;2022-12-29T09:23:33;100014.13;;;12.61;71.81
8140;BME280;4111;50.972;7.072;2022-12-29T09:26:01;100025.03;;;12.61;71.51
8140;BME280;4111;50.972;7.072;2022-12-29T09:28:28;100031.28;;;12.67;71.57
8140;BME280;4111;50.972;7.072;2022-12-29T09:30:56;100045.72;;;12.67;71.36
8140;BME280;4111;50.972;7.072;2022-12-29T09:33:23;100036.19;;;12.70;71.67
8140;BME280;4111;50.972;7.072;2022-12-29T09:35:52;100052.00;;;12.68;70.97
8140;BME280;4111;50.972;7.072;2022-12-29T09:38:19;100048.41;;;12.73;70.79
8140;BME280;4111;50.972;7.072;2022-12-29T09:40:51;100066.09;;;12.80;70.74
8140;BME280;4111;50.972;7.072;2022-12-29T09:48:41;100065.53;;;12.94;69.59
8140;BME280;4111;50.972;7.072;2022-12-29T09:51:14;100063.28;;;13.06;69.52
8140;BME280;4111;50.972;7.072;2022-12-29T09:53:53;100065.16;;;13.10;69.53
8140;BME280;4111;50.972;7.072;2022-12-29T09:56:23;100065.13;;;13.16;68.98
8140;BME280;4111;50.972;7.072;2022-12-29T09:59:04;100074.19;;;13.06;68.14
8140;BME280;4111;50.972;7.072;2022-12-29T10:01:45;100063.81;;;13.03;67.52
8140;BME280;4111;50.972;7.072;2022-12-29T10:04:15;100070.38;;;13.02;67.29
8140;BME280;4111;50.972;7.072;2022-12-29T10:06:57;100063.56;;;13.04;67.24
8140;BME280;4111;50.972;7.072;2022-12-29T10:09:57;100062.69;;;13.09;66.65
8140;BME280;4111;50.972;7.072;2022-12-29T10:15:40;100083.47;;;13.00;66.32
8140;BME280;4111;50.972;7.072;2022-12-29T10:21:08;100059.44;;;13.07;65.67
8140;BME280;4111;50.972;7.072;2022-12-29T10:26:13;100051.78;;;13.19;65.70
8140;BME280;4111;50.972;7.072;2022-12-29T10:28:51;100050.91;;;13.24;65.35
8140;BME280;4111;50.972;7.072;2022-12-29T10:31:24;100051.19;;;13.22;65.36
8140;BME280;4111;50.972;7.072;2022-12-29T10:33:57;100058.31;;;13.18;65.08
8140;BME280;4111;50.972;7.072;2022-12-29T10:36:35;100059.97;;;13.14;64.83
8140;BME280;4111;50.972;7.072;2022-12-29T10:39:06;100050.72;;;13.15;65.33
8140;BME280;4111;50.972;7.072;2022-12-29T10:44:17;100072.50;;;13.15;64.46
8140;BME280;4111;50.972;7.072;2022-12-29T10:46:55;100073.88;;;13.13;64.01
8140;BME280;4111;50.972;7.072;2022-12-29T10:49:24;100065.41;;;13.14;64.06
8140;BME280;4111;50.972;7.072;2022-12-29T10:51:55;100065.69;;;13.18;64.28
8140;BME280;4111;50.972;7.072;2022-12-29T10:54:33;100077.66;;;13.22;64.31
8140;BME280;4111;50.972;7.072;2022-12-29T10:57:05;100071.66;;;13.20;63.92
8140;BME280;4111;50.972;7.072;2022-12-29T10:59:36;100070.31;;;13.17;63.75
8140;BME280;4111;50.972;7.072;2022-12-29T11:04:56;100075.19;;;13.25;64.08
8140;BME280;4111;50.972;7.072;2022-12-29T11:07:26;100079.00;;;13.29;64.27
8140;BME280;4111;50.972;7.072;2022-12-29T11:09:53;100082.78;;;13.28;64.23
8140;BME280;4111;50.972;7.072;2022-12-29T11:12:28;100074.91;;;13.27;64.31
8140;BME280;4111;50.972;7.072;2022-12-29T11:15:11;100075.16;;;13.31;64.17
8140;BME280;4111;50.972;7.072;2022-12-29T11:17:57;100077.31;;;13.28;64.25
8140;BME280;4111;50.972;7.072;2022-12-29T11:22:55;100086.59;;;13.33;64.48
8140;BME280;4111;50.972;7.072;2022-12-29T11:25:22;100076.22;;;13.40;64.30
8140;BME280;4111;50.972;7.072;2022-12-29T11:28:03;100090.94;;;13.39;64.49
8140;BME280;4111;50.972;7.072;2022-12-29T11:30:31;100093.66;;;13.39;64.43
8140;BME280;4111;50.972;7.072;2022-12-29T11:33:02;100092.03;;;13.38;64.39
8140;BME280;4111;50.972;7.072;2022-12-29T11:37:58;100100.75;;;13.40;64.48
8140;BME280;4111;50.972;7.072;2022-12-29T11:40:25;100100.75;;;13.40;64.78
8140;BME280;4111;50.972;7.072;2022-12-29T11:42:55;100107.34;;;13.34;64.54
8140;BME280;4111;50.972;7.072;2022-12-29T11:45:33;100103.50;;;13.35;64.43
8140;BME280;4111;50.972;7.072;2022-12-29T11:48:08;100100.81;;;13.29;64.14
8140;BME280;4111;50.972;7.072;2022-12-29T11:50:39;100099.69;;;13.31;64.62
8140;BME280;4111;50.972;7.072;2022-12-29T11:53:24;100115.25;;;13.35;64.63
8140;BME280;4111;50.972;7.072;2022-12-29T11:55:55;100111.72;;;13.29;64.44
8140;BME280;4111;50.972;7.072;2022-12-29T11:58:34;100124.78;;;13.27;64.67
8140;BME280;4111;50.972;7.072;2022-12-29T12:01:23;100122.34;;;13.21;64.79
8140;BME280;4111;50.972;7.072;2022-12-29T12:04:02;100124.00;;;13.17;65.10
8140;BME280;4111;50.972;7.072;2022-12-29T12:06:34;100135.69;;;13.22;65.06
8140;BME280;4111;50.972;7.072;2022-12-29T12:09:06;100130.25;;;13.27;65.37
8140;BME280;4111;50.972;7.072;2022-12-29T12:11:39;100124.25;;;13.31;65.19
8140;BME280;4111;50.972;7.072;2022-12-29T12:14:17;100132.44;;;13.25;65.04
8140;BME280;4111;50.972;7.072;2022-12-29T12:16:49;100131.38;;;13.16;64.69
8140;BME280;4111;50.972;7.072;2022-12-29T12:19:20;100125.91;;;13.16;64.78
8140;BME280;4111;50.972;7.072;2022-12-29T12:21:56;100134.91;;;13.17;65.07
8140;BME280;4111;50.972;7.072;2022-12-29T12:24:39;100138.75;;;13.10;64.69
8140;BME280;4111;50.972;7.072;2022-12-29T12:27:16;100136.59;;;13.07;64.60
8140;BME280;4111;50.972;7.072;2022-12-29T12:29:56;100130.03;;;13.08;64.67
8140;BME280;4111;50.972;7.072;2022-12-29T12:32:43;100140.66;;;13.05;64.49
8140;BME280;4111;50.972;7.072;2022-12-29T12:35:13;100141.78;;;13.04;64.54
8140;BME280;4111;50.972;7.072;2022-12-29T12:37:49;100151.56;;;13.05;64.78
8140;BME280;4111;50.972;7.072;2022-12-29T12:40:34;100151.59;;;13.00;64.92
8140;BME280;4111;50.972;7.072;2022-12-29T12:51:25;100156.78;;;12.96;65.48
8140;BME280;4111;50.972;7.072;2022-12-29T12:57:32;100163.31;;;13.00;65.86
8140;BME280;4111;50.972;7.072;2022-12-29T13:00:12;100158.94;;;12.99;65.98
8140;BME280;4111;50.972;7.072;2022-12-29T13:02:56;100164.97;;;13.01;65.88
8140;BME280;4111;50.972;7.072;2022-12-29T13:05:50;100171.72;;;13.09;66.20
8140;BME280;4111;50.972;7.072;2022-12-29T13:11:46;100175.56;;;13.08;66.01
8140;BME280;4111;50.972;7.072;2022-12-29T13:17:08;100165.19;;;13.05;66.02
8140;BME280;4111;50.972;7.072;2022-12-29T13:20:02;100179.13;;;13.03;65.99
8140;BME280;4111;50.972;7.072;2022-12-29T13:22:39;100167.13;;;12.99;65.79
8140;BME280;4111;50.972;7.072;2022-12-29T13:25:27;100172.59;;;12.89;65.63
8140;BME280;4111;50.972;7.072;2022-12-29T13:28:06;100184.31;;;12.84;66.16
8140;BME280;4111;50.972;7.072;2022-12-29T13:30:52;100179.44;;;12.76;66.07
8140;BME280;4111;50.972;7.072;2022-12-29T13:33:41;100168.53;;;12.76;66.18
8140;BME280;4111;50.972;7.072;2022-12-29T13:36:22;100181.63;;;12.74;66.45
8140;BME280;4111;50.972;7.072;2022-12-29T13:39:11;100186.81;;;12.70;66.69
8140;BME280;4111;50.972;7.072;2022-12-29T13:41:50;100186.00;;;12.70;66.83
8140;BME280;4111;50.972;7.072;2022-12-29T13:47:37;100189.53;;;12.70;67.48
8140;BME280;4111;50.972;7.072;2022-12-29T13:50:12;100177.28;;;12.68;67.09
8140;BME280;4111;50.972;7.072;2022-12-29T13:52:59;100195.25;;;12.64;67.47
8140;BME280;4111;50.972;7.072;2022-12-29T13:58:15;100202.88;;;12.57;67.43
8140;BME280;4111;50.972;7.072;2022-12-29T14:00:56;100184.34;;;12.54;67.64
8140;BME280;4111;50.972;7.072;2022-12-29T14:06:21;100201.25;;;12.50;67.81
8140;BME280;4111;50.972;7.072;2022-12-29T14:08:54;100194.44;;;12.48;68.05
8140;BME280;4111;50.972;7.072;2022-12-29T14:11:28;100191.44;;;12.49;67.92
8140;BME280;4111;50.972;7.072;2022-12-29T14:13:55;100205.59;;;12.52;68.28
8140;BME280;4111;50.972;7.072;2022-12-29T14:16:33;100203.97;;;12.50;68.25
8140;BME280;4111;50.972;7.072;2022-12-29T14:19:15;100202.88;;;12.52;68.14
8140;BME280;4111;50.972;7.072;2022-12-29T14:21:57;100204.50;;;12.47;68.53
8140;BME280;4111;50.972;7.072;2022-12-29T14:24:40;100199.06;;;12.47;68.36
8140;BME280;4111;50.972;7.072;2022-12-29T14:34:48;100202.59;;;12.43;69.06
8140;BME280;4111;50.972;7.072;2022-12-29T14:40:17;100203.41;;;12.33;69.32
8140;BME280;4111;50.972;7.072;2022-12-29T14:42:48;100232.25;;;12.34;69.48
8140;BME280;4111;50.972;7.072;2022-12-29T14:47:45;100240.19;;;12.30;69.80
8140;BME280;4111;50.972;7.072;2022-12-29T14:50:40;100243.13;;;12.24;69.88
8140;BME280;4111;50.972;7.072;2022-12-29T14:53:05;100234.44;;;12.17;69.99
8140;BME280;4111;50.972;7.072;2022-12-29T14:58:26;100244.72;;;12.04;70.18
8140;BME280;4111;50.972;7.072;2022-12-29T15:00:54;100243.94;;;11.99;70.60
8140;BME280;4111;50.972;7.072;2022-12-29T15:03:44;100239.28;;;11.99;70.59
8140;BME280;4111;50.972;7.072;2022-12-29T15:06:13;100230.88;;;12.01;70.97
8140;BME280;4111;50.972;7.072;2022-12-29T15:14:02;100246.88;;;11.92;71.30
8140;BME280;4111;50.972;7.072;2022-12-29T15:16:33;100238.41;;;11.88;71.29